Mooresville, Indiana
Current Conditions -  °F | °C
As of 7:54 AM on Friday 24 Oct 2014 (Local Time) from KIND Reporting Station
Scattered Clouds Scattered Clouds  
Wind Chill: 41°   Ceiling: Unl
Heat Index: 41°   Visibility: 9mi
Dew Point: 38°   Wind: 3mph
Humidity: 89%   Direction: 240°WSW
Pressure: 30.1"   Gusts: NA
Location:  39.61°N, 86.37°W
Report Text: KIND 241154Z 24003KT 9SM SCT100 05/03 A3010 RMK AO2 SLP195 T00500033 10078 20044 50002
Loading
Personal Weather Stations






























Interactive Weather Map
Tropical Storm Tracking
New forecast layout! Learn more

10-Day Weather Forecast

Advertisements
Track Severe Weather on mobile